Time;durP1;ratioP1;P1;durP2;ratioP2;P2;SDS_P1;SDS_P2;PMS_P1;PMS_P2;Temp;Humidity;BMP_temperature;BMP_pressure;BME280_temperature;BME280_humidity;BME280_pressure;Samples;Min_cycle;Max_cycle;Signal;HPM_P1;HPM_P2
2022/12/02 05:22:35;;;;;;;12.07;5.85;;;;;;;3.44;100.00;100598.59;5089146;28;20336;-68
2022/12/02 05:25:01;;;;;;;15.88;7.75;;;;;;;3.41;100.00;100599.69;5089535;28;20101;-68
2022/12/02 05:27:27;;;;;;;23.90;8.65;;;;;;;3.39;100.00;100596.34;5088114;28;20048;-68
2022/12/02 05:29:52;;;;;;;23.00;8.10;;;;;;;3.43;100.00;100596.94;5089095;28;20036;-67
2022/12/02 05:32:17;;;;;;;20.13;9.02;;;;;;;3.44;100.00;100604.72;5089038;28;20059;-68
2022/12/02 05:34:43;;;;;;;29.08;9.63;;;;;;;3.49;100.00;100599.94;5089431;28;20396;-68
2022/12/02 05:37:08;;;;;;;19.58;7.68;;;;;;;3.42;100.00;100598.75;5089055;28;20032;-68
2022/12/02 05:39:33;;;;;;;18.33;7.43;;;;;;;3.50;100.00;100609.50;5089105;28;20040;-68
2022/12/02 05:42:04;;;;;;;17.10;8.25;;;;;;;3.46;100.00;100597.56;5087247;28;20040;-67
2022/12/02 05:44:30;;;;;;;24.88;9.05;;;;;;;3.37;100.00;100598.25;5088904;28;20051;-68
2022/12/02 05:47:08;;;;;;;18.85;7.00;;;;;;;3.49;100.00;100599.94;5088926;28;20037;-68
2022/12/02 05:49:34;;;;;;;27.77;8.90;;;;;;;3.52;100.00;100597.06;5087492;28;20477;-68
2022/12/02 05:52:01;;;;;;;19.67;8.25;;;;;;;3.57;100.00;100603.75;5087193;28;20081;-69
2022/12/02 05:54:28;;;;;;;22.63;8.98;;;;;;;3.58;100.00;100597.53;5089050;28;20242;-68
2022/12/02 05:56:55;;;;;;;21.13;7.72;;;;;;;3.54;100.00;100597.78;5088756;28;20043;-68
2022/12/02 05:59:22;;;;;;;20.52;7.32;;;;;;;3.55;100.00;100601.25;5088796;28;20538;-68
2022/12/02 06:01:50;;;;;;;22.45;7.70;;;;;;;3.61;100.00;100607.84;5088512;28;20060;-68
2022/12/02 06:04:23;;;;;;;20.67;8.15;;;;;;;3.58;100.00;100605.44;5088762;28;20036;-68
2022/12/02 06:06:52;;;;;;;25.23;8.40;;;;;;;3.56;100.00;100604.72;5088643;28;20040;-68
2022/12/02 06:09:21;;;;;;;20.63;8.18;;;;;;;3.62;100.00;100593.72;5088599;28;20032;-68
2022/12/02 06:11:47;;;;;;;24.40;8.73;;;;;;;3.67;100.00;100594.19;5088222;28;20131;-68
2022/12/02 06:14:16;;;;;;;29.50;9.25;;;;;;;3.65;100.00;100593.47;5088636;28;20140;-68
2022/12/02 06:16:45;;;;;;;19.45;8.65;;;;;;;3.68;100.00;100593.25;5088376;28;20040;-68
2022/12/02 06:19:21;;;;;;;24.65;7.70;;;;;;;3.71;100.00;100595.63;5088342;28;20040;-68
2022/12/02 06:21:46;;;;;;;17.75;6.95;;;;;;;3.70;100.00;100599.22;5088533;28;20032;-69
2022/12/02 06:24:12;;;;;;;19.08;7.20;;;;;;;3.68;100.00;100593.25;5088415;28;20081;-68
2022/12/02 06:26:37;;;;;;;20.05;7.97;;;;;;;3.66;100.00;100597.78;5088223;28;20044;-68
2022/12/02 06:29:03;;;;;;;19.40;9.60;;;;;;;3.70;100.00;100593.94;5088170;28;20032;-67
2022/12/02 06:31:37;;;;;;;27.55;8.18;;;;;;;3.70;100.00;100586.88;5087992;28;20585;-68
2022/12/02 06:34:30;;;;;;;18.10;7.35;;;;;;;3.54;100.00;100584.63;5074268;28;20039;-68
2022/12/02 06:36:57;;;;;;;19.35;7.72;;;;;;;3.64;100.00;100583.88;5074544;28;20105;-68
2022/12/02 06:39:23;;;;;;;21.40;8.27;;;;;;;3.66;100.00;100592.53;5074589;28;20684;-68
2022/12/02 06:41:50;;;;;;;17.33;8.00;;;;;;;3.62;100.00;100581.38;5072920;28;20390;-68
2022/12/02 06:47:36;;;;;;;19.95;8.55;;;;;;;3.53;100.00;100588.22;5074488;28;20034;-68
2022/12/02 06:50:04;;;;;;;20.92;7.65;;;;;;;3.46;100.00;100581.75;5073982;28;20028;-63
2022/12/02 06:52:43;;;;;;;22.30;8.73;;;;;;;3.50;100.00;100585.81;5073945;28;20040;-64
2022/12/02 06:55:21;;;;;;;27.88;9.68;;;;;;;3.51;100.00;100595.38;5074142;28;20036;-64
2022/12/02 06:57:47;;;;;;;19.33;6.95;;;;;;;3.48;100.00;100587.72;5072778;28;20493;-64
2022/12/02 07:00:13;;;;;;;20.63;6.65;;;;;;;3.44;100.00;100583.66;5073828;28;20032;-64
2022/12/02 07:02:40;;;;;;;14.80;6.88;;;;;;;3.48;100.00;100590.38;5073874;28;20051;-68
2022/12/02 07:05:06;;;;;;;24.90;8.00;;;;;;;3.45;100.00;100585.31;5074216;28;20375;-67
2022/12/02 07:07:34;;;;;;;18.90;8.15;;;;;;;3.43;100.00;100589.88;5074187;28;20039;-68
2022/12/02 07:10:03;;;;;;;32.42;9.30;;;;;;;3.33;100.00;100586.28;5073787;28;20119;-66
2022/12/02 07:12:42;;;;;;;20.90;8.00;;;;;;;3.42;100.00;100585.56;5073698;28;20048;-66
2022/12/02 07:15:08;;;;;;;23.25;8.00;;;;;;;3.47;100.00;100582.59;5073942;28;20053;-68
2022/12/02 07:17:42;;;;;;;15.55;6.88;;;;;;;3.45;100.00;100582.69;5072290;28;20063;-67
2022/12/02 07:20:10;;;;;;;23.17;8.05;;;;;;;3.42;100.00;100590.84;5073457;28;20373;-68
2022/12/02 07:22:37;;;;;;;23.70;8.52;;;;;;;3.48;100.00;100587.72;5073541;28;20090;-67
2022/12/02 07:25:03;;;;;;;21.92;7.47;;;;;;;3.49;100.00;100589.41;5073725;28;20075;-67
2022/12/02 07:27:32;;;;;;;18.77;6.88;;;;;;;3.51;100.00;100581.38;5073613;28;20079;-68
2022/12/02 07:29:59;;;;;;;16.27;7.07;;;;;;;3.57;100.00;100587.97;5072212;28;20124;-67
2022/12/02 07:32:25;;;;;;;26.30;8.20;;;;;;;3.56;100.00;100587.13;5073284;28;20048;-68
2022/12/02 07:34:50;;;;;;;18.52;8.02;;;;;;;3.54;100.00;100586.41;5073322;28;20295;-68
2022/12/02 07:37:16;;;;;;;21.27;8.07;;;;;;;3.60;100.00;100585.09;5073531;28;20088;-67
2022/12/02 07:39:42;;;;;;;13.77;6.97;;;;;;;3.56;100.00;100583.66;5073373;28;20635;-67
2022/12/02 07:42:07;;;;;;;20.73;7.57;;;;;;;3.58;100.00;100577.28;5073062;28;20122;-68
2022/12/02 07:44:32;;;;;;;14.57;6.88;;;;;;;3.57;100.00;100583.53;5072372;28;20028;-68
2022/12/02 07:46:58;;;;;;;23.50;8.00;;;;;;;3.60;100.00;100582.47;5073039;28;20378;-68
2022/12/02 07:49:24;;;;;;;18.92;7.13;;;;;;;3.54;100.00;100584.63;5073204;28;20064;-68
2022/12/02 07:51:49;;;;;;;19.60;7.35;;;;;;;3.60;100.00;100579.84;5072636;28;20041;-69
2022/12/02 07:54:15;;;;;;;17.98;7.28;;;;;;;3.57;100.00;100583.53;5072323;28;20524;-69
2022/12/02 07:56:41;;;;;;;18.45;7.22;;;;;;;3.61;100.00;100581.50;5071726;28;20040;-69
2022/12/02 07:59:06;;;;;;;23.50;7.80;;;;;;;3.61;100.00;100581.50;5072987;28;20773;-69
2022/12/02 08:01:32;;;;;;;23.95;8.40;;;;;;;3.61;100.00;100578.88;5072665;28;20119;-69
2022/12/02 08:03:57;;;;;;;19.27;7.55;;;;;;;3.64;100.00;100581.25;5072886;28;20044;-69
2022/12/02 08:06:22;;;;;;;16.70;6.20;;;;;;;3.65;100.00;100573.25;5072813;28;20044;-69
2022/12/02 08:08:48;;;;;;;26.17;8.52;;;;;;;3.64;100.00;100573.34;5072761;28;20040;-69
2022/12/02 08:11:13;;;;;;;18.08;7.88;;;;;;;3.64;100.00;100579.44;5072288;28;20485;-68
2022/12/02 08:13:38;;;;;;;20.88;7.82;;;;;;;3.60;100.00;100577.19;5072684;28;20049;-69
2022/12/02 08:16:04;;;;;;;20.58;8.48;;;;;;;3.63;100.00;100583.06;5072574;28;20124;-69
2022/12/02 08:18:29;;;;;;;21.58;7.03;;;;;;;3.67;100.00;100581.03;5072688;28;20098;-69
2022/12/02 08:20:55;;;;;;;20.08;7.45;;;;;;;3.61;100.00;100576.22;5070763;28;20134;-70
2022/12/02 08:23:20;;;;;;;19.67;7.28;;;;;;;3.63;100.00;100576.94;5072468;28;20040;-69
2022/12/02 08:25:46;;;;;;;18.08;7.93;;;;;;;3.61;100.00;100563.06;5072344;28;20397;-69
2022/12/02 08:28:11;;;;;;;15.80;6.65;;;;;;;3.63;100.00;100577.78;5072309;28;20045;-69
2022/12/02 08:30:36;;;;;;;22.50;8.27;;;;;;;3.67;100.00;100578.41;5071938;28;20094;-69
2022/12/02 08:33:02;;;;;;;18.13;7.50;;;;;;;3.66;100.00;100559.13;5070928;28;20080;-69
2022/12/02 08:35:27;;;;;;;19.13;7.70;;;;;;;3.59;100.00;100567.63;5072137;28;20040;-69
2022/12/02 08:37:53;;;;;;;21.67;7.13;;;;;;;3.66;100.00;100566.19;5072110;28;20039;-69
2022/12/02 08:40:18;;;;;;;16.90;8.20;;;;;;;3.71;100.00;100559.56;5071899;28;20036;-69
2022/12/02 08:42:44;;;;;;;19.70;7.40;;;;;;;3.66;100.00;100566.19;5072229;28;20120;-68
2022/12/02 08:45:10;;;;;;;21.98;7.28;;;;;;;3.65;100.00;100549.53;5072078;28;20037;-69
2022/12/02 08:47:35;;;;;;;22.50;8.30;;;;;;;3.71;100.00;100554.28;5072164;28;20115;-69
2022/12/02 08:50:01;;;;;;;22.00;8.27;;;;;;;3.72;100.00;100552.53;5071842;28;20089;-69
2022/12/02 08:52:26;;;;;;;20.85;7.65;;;;;;;3.74;100.00;100550.59;5071832;28;20154;-69
2022/12/02 08:54:52;;;;;;;22.30;8.23;;;;;;;3.73;100.00;100551.56;5071985;28;20051;-69
2022/12/02 08:57:18;;;;;;;21.38;7.75;;;;;;;3.70;100.00;100557.06;5071774;28;20482;-69
2022/12/02 08:59:43;;;;;;;20.00;7.57;;;;;;;3.63;100.00;100564.59;5070530;28;20055;-68
2022/12/02 09:02:09;;;;;;;19.98;7.28;;;;;;;3.51;100.00;100560.31;5071553;28;20085;-69
2022/12/02 09:04:34;;;;;;;17.60;6.80;;;;;;;3.62;100.00;100552.41;5071801;28;20174;-68
2022/12/02 09:06:59;;;;;;;27.50;8.75;;;;;;;3.62;100.00;100559.47;5071786;28;20098;-68
2022/12/02 09:09:25;;;;;;;21.23;8.05;;;;;;;3.65;100.00;100548.66;5071917;28;20397;-69
2022/12/02 09:11:50;;;;;;;18.13;7.10;;;;;;;3.60;100.00;100543.78;5071468;28;20033;-68
2022/12/02 09:14:15;;;;;;;21.17;7.80;;;;;;;3.69;100.00;100550.13;5071639;28;20515;-68
2022/12/02 09:16:41;;;;;;;22.80;8.00;;;;;;;3.71;100.00;100556.94;5070320;28;20142;-68
2022/12/02 09:19:06;;;;;;;21.13;7.47;;;;;;;3.74;100.00;100558.50;5071800;28;20025;-69
2022/12/02 09:21:32;;;;;;;25.35;7.68;;;;;;;3.78;100.00;100552.88;5071276;28;20032;-69
2022/12/02 09:23:57;;;;;;;20.65;7.63;;;;;;;3.77;100.00;100550.34;5071642;28;20036;-69
2022/12/02 09:26:22;;;;;;;19.67;8.35;;;;;;;3.65;100.00;100548.66;5071803;28;20485;-68
2022/12/02 09:28:48;;;;;;;18.65;8.55;;;;;;;3.75;100.00;100555.72;5072390;28;20032;-68
2022/12/02 09:31:13;;;;;;;17.30;7.60;;;;;;;3.78;100.00;100552.88;5071360;28;20127;-69
2022/12/02 09:33:39;;;;;;;22.23;8.52;;;;;;;3.75;100.00;100555.72;5071459;28;20040;-69
2022/12/02 09:36:05;;;;;;;16.77;7.88;;;;;;;3.81;100.00;100554.41;5071439;28;20093;-68
2022/12/02 09:38:31;;;;;;;18.95;6.35;;;;;;;3.84;100.00;100551.53;5071504;28;20071;-68
2022/12/02 09:41:00;;;;;;;16.83;7.15;;;;;;;3.88;100.00;100552.13;5071112;28;20044;-68
2022/12/02 09:43:29;;;;;;;16.20;6.90;;;;;;;3.77;100.00;100552.97;5070263;28;20478;-69
2022/12/02 09:45:54;;;;;;;18.15;7.07;;;;;;;3.84;100.00;100551.53;5071323;28;20036;-69
2022/12/02 09:48:21;;;;;;;22.45;7.88;;;;;;;3.86;100.00;100543.50;5071457;28;20097;-69
2022/12/02 09:50:46;;;;;;;14.45;6.80;;;;;;;3.90;100.00;100545.75;5071005;28;20043;-69
2022/12/02 09:53:14;;;;;;;18.10;7.30;;;;;;;3.91;100.00;100539.56;5071369;28;20119;-68
2022/12/02 09:55:40;;;;;;;17.38;6.55;;;;;;;3.97;100.00;100546.94;5071269;28;20098;-69
2022/12/02 09:58:16;;;;;;;19.35;7.40;;;;;;;3.85;100.00;100542.69;5071470;28;20040;-68
2022/12/02 10:00:42;;;;;;;24.27;7.40;;;;;;;3.92;100.00;100538.59;5071048;28;20635;-68
2022/12/02 10:03:12;;;;;;;19.02;7.68;;;;;;;3.89;100.00;100536.19;5071322;28;20106;-69
2022/12/02 10:05:37;;;;;;;21.90;7.63;;;;;;;3.92;100.00;100540.38;5071091;28;20041;-69
2022/12/02 10:08:04;;;;;;;20.30;7.88;;;;;;;3.95;100.00;100533.06;5072780;28;20087;-68
2022/12/02 10:10:36;;;;;;;19.58;8.38;;;;;;;3.86;100.00;100536.44;5074436;28;20032;-67
2022/12/02 10:13:02;;;;;;;18.08;7.47;;;;;;;3.95;100.00;100535.69;5074935;28;20040;-68
2022/12/02 10:15:30;;;;;;;20.33;8.27;;;;;;;3.97;100.00;100533.75;5074752;28;20471;-68
2022/12/02 10:17:58;;;;;;;21.50;7.40;;;;;;;3.78;100.00;100533.56;5074859;28;20037;-68
2022/12/02 10:20:25;;;;;;;;;;;;;;;3.81;100.00;100528.91;5074848;28;20462;-69
2022/12/02 10:23:11;;;;;;;16.48;7.22;;;;;;;3.91;100.00;100522.88;5074794;28;20434;-68
2022/12/02 10:25:39;;;;;;;16.90;6.72;;;;;;;3.96;100.00;100525.97;5074697;28;20032;-68
2022/12/02 10:28:17;;;;;;;20.08;7.07;;;;;;;4.00;100.00;100522.16;5074676;28;20032;-68
2022/12/02 10:31:03;;;;;;;16.98;7.28;;;;;;;3.95;100.00;100517.25;5074204;28;20044;-69
2022/12/02 10:33:31;;;;;;;17.83;7.63;;;;;;;3.77;100.00;100521.34;5074511;28;20028;-68
2022/12/02 10:35:58;;;;;;;20.23;7.70;;;;;;;3.71;100.00;100519.19;5074518;28;20040;-69
2022/12/02 10:38:43;;;;;;;21.90;7.28;;;;;;;3.84;100.00;100513.78;5074408;28;20040;-69
2022/12/02 10:41:18;;;;;;;24.35;8.20;;;;;;;3.87;100.00;100514.41;5074109;28;20048;-69
2022/12/02 10:43:51;;;;;;;18.52;6.70;;;;;;;3.92;100.00;100504.31;5074506;28;20044;-69
2022/12/02 10:46:18;;;;;;;18.92;8.02;;;;;;;3.92;100.00;100504.31;5074420;28;20043;-69
2022/12/02 10:48:43;;;;;;;25.97;7.73;;;;;;;4.02;100.00;100499.97;5074342;28;20039;-69
2022/12/02 10:51:13;;;;;;;19.25;7.85;;;;;;;4.00;100.00;100499.25;5073941;28;20036;-69
2022/12/02 10:53:39;;;;;;;24.08;7.63;;;;;;;3.96;100.00;100489.91;5074447;28;20051;-69
2022/12/02 10:56:05;;;;;;;19.70;7.85;;;;;;;3.81;100.00;100497.28;5074045;28;20044;-68
2022/12/02 10:58:30;;;;;;;16.10;7.00;;;;;;;4.00;100.00;100490.53;5074190;28;20032;-68
2022/12/02 11:00:57;;;;;;;20.60;7.32;;;;;;;4.02;100.00;100484.16;5073597;28;20644;-69
2022/12/02 11:03:23;;;;;;;17.77;6.28;;;;;;;3.92;100.00;100477.97;5073980;28;20033;-69
2022/12/02 11:05:49;;;;;;;20.85;8.20;;;;;;;3.96;100.00;100483.81;5073798;28;20036;-69
2022/12/02 11:08:15;;;;;;;19.25;7.97;;;;;;;4.07;100.00;100481.97;5072595;28;20036;-69
2022/12/02 11:10:43;;;;;;;23.95;7.35;;;;;;;4.04;100.00;100482.25;5073327;28;20420;-68
2022/12/02 11:13:11;;;;;;;15.38;6.30;;;;;;;4.10;100.00;100480.88;5073707;28;20043;-68
2022/12/02 11:15:37;;;;;;;14.45;6.97;;;;;;;4.13;100.00;100479.81;5073858;28;20056;-69
2022/12/02 11:18:04;;;;;;;17.50;6.55;;;;;;;4.18;100.00;100477.63;5073695;28;20055;-69
2022/12/02 11:20:34;;;;;;;19.45;7.53;;;;;;;4.14;100.00;100471.75;5073468;28;20044;-69
2022/12/02 11:22:59;;;;;;;19.38;7.50;;;;;;;4.14;100.00;100470.94;5073751;28;20044;-69
2022/12/02 11:25:43;;;;;;;14.80;6.55;;;;;;;4.17;100.00;100474.13;5073848;28;20036;-68
2022/12/02 11:28:31;;;;;;;18.30;7.10;;;;;;;4.17;100.00;100460.94;5073658;28;20032;-68
2022/12/02 11:31:08;;;;;;;14.70;5.80;;;;;;;4.18;100.00;100469.72;5073491;28;20377;-68
2022/12/02 11:33:43;;;;;;;19.52;8.20;;;;;;;4.19;100.00;100471.38;5072870;28;20432;-68
2022/12/02 11:36:09;;;;;;;18.33;5.90;;;;;;;4.16;100.00;100463.72;5073475;28;20060;-67
2022/12/02 11:39:08;;;;;;;14.32;6.90;;;;;;;4.21;100.00;100458.91;5073361;28;20119;-68
2022/12/02 11:41:48;;;;;;;15.73;6.68;;;;;;;4.26;100.00;100457.56;5069253;28;20045;-68
2022/12/02 11:44:25;;;;;;;14.82;6.78;;;;;;;4.29;100.00;100451.19;5073150;28;20055;-68
2022/12/02 11:46:54;;;;;;;14.63;6.63;;;;;;;4.25;100.00;100457.69;5071886;28;20036;-68
2022/12/02 11:49:39;;;;;;;13.93;5.95;;;;;;;4.22;100.00;100447.38;5072989;28;20546;-67
2022/12/02 11:52:07;;;;;;;16.58;6.05;;;;;;;4.27;100.00;100447.84;5072682;28;20397;-68
2022/12/02 11:54:38;;;;;;;15.45;5.75;;;;;;;4.28;100.00;100445.09;5073115;28;20485;-68
2022/12/02 11:57:05;;;;;;;11.05;5.38;;;;;;;4.32;100.00;100448.31;5066210;28;20044;-68
2022/12/02 11:59:35;;;;;;;11.68;5.70;;;;;;;4.27;100.00;100439.94;5071248;28;20093;-68
2022/12/02 12:02:26;;;;;;;15.73;6.05;;;;;;;4.38;100.00;100441.69;5061773;28;20165;-68
2022/12/02 12:05:06;;;;;;;15.13;5.45;;;;;;;4.41;100.00;100444.06;5058460;28;20137;-68
2022/12/02 12:07:45;;;;;;;10.35;5.40;;;;;;;4.35;100.00;100437.50;5066949;28;20444;-68
2022/12/02 12:10:23;;;;;;;10.15;5.45;;;;;;;4.40;100.00;100423.94;5072519;28;20051;-68
2022/12/02 12:13:21;;;;;;;12.85;5.30;;;;;;;4.38;100.00;100437.25;5072794;28;20051;-68
2022/12/02 12:15:50;;;;;;;11.57;4.93;;;;;;;4.30;100.00;100434.41;5072580;28;20043;-68
2022/12/02 12:18:37;;;;;;;17.10;5.60;;;;;;;4.32;100.00;100428.06;5072577;28;20036;-67
2022/12/02 12:21:03;;;;;;;11.40;4.50;;;;;;;4.33;100.00;100419.16;5072008;28;20166;-68
2022/12/02 12:23:36;;;;;;;10.85;5.63;;;;;;;4.35;100.00;100416.38;5072457;28;20040;-68
2022/12/02 12:26:03;;;;;;;14.32;5.43;;;;;;;4.36;100.00;100410.97;5072397;28;20039;-68
2022/12/02 12:28:31;;;;;;;14.82;5.35;;;;;;;4.33;100.00;100413.06;5072455;28;20032;-68
2022/12/02 12:30:58;;;;;;;12.90;5.20;;;;;;;4.31;100.00;100407.09;5071563;28;20044;-68
2022/12/02 12:33:23;;;;;;;10.23;4.30;;;;;;;4.21;100.00;100401.72;5072577;28;20086;-68
2022/12/02 12:35:52;;;;;;;12.30;5.18;;;;;;;4.26;100.00;100407.47;5072190;28;20310;-68
2022/12/02 12:38:18;;;;;;;10.70;4.90;;;;;;;4.11;100.00;100414.03;5072108;28;20424;-67
2022/12/02 12:40:43;;;;;;;12.38;5.97;;;;;;;4.24;100.00;100403.28;5068926;28;20036;-68
2022/12/02 12:43:09;;;;;;;16.55;6.32;;;;;;;4.28;100.00;100400.25;5054211;28;20087;-67
2022/12/02 12:45:34;;;;;;;11.63;5.57;;;;;;;4.29;100.00;100401.09;5072270;28;20086;-68
2022/12/02 12:48:00;;;;;;;11.90;6.72;;;;;;;4.31;100.00;100399.19;5072198;28;20033;-68
2022/12/02 12:50:25;;;;;;;10.93;5.25;;;;;;;4.33;100.00;100392.78;5071777;28;20457;-68
2022/12/02 12:52:50;;;;;;;12.15;5.75;;;;;;;4.38;100.00;100402.13;5072115;28;20378;-68
2022/12/02 12:55:16;;;;;;;12.45;6.55;;;;;;;4.36;100.00;100386.41;5071876;28;20123;-68
2022/12/02 12:57:41;;;;;;;15.25;6.03;;;;;;;4.36;100.00;100387.25;5072026;28;20066;-67
2022/12/02 13:00:07;;;;;;;13.02;5.70;;;;;;;4.29;100.00;100383.47;5071808;28;20048;-68
2022/12/02 13:02:32;;;;;;;12.68;5.45;;;;;;;4.34;100.00;100389.19;5071974;28;20021;-68
2022/12/02 13:04:58;;;;;;;14.32;5.68;;;;;;;4.27;100.00;100380.13;5060388;28;20131;-69
2022/12/02 13:07:23;;;;;;;13.07;5.88;;;;;;;4.32;100.00;100385.00;5051916;28;20045;-69
2022/12/02 13:09:48;;;;;;;12.55;4.97;;;;;;;4.19;100.00;100379.94;5051823;28;20048;-68
2022/12/02 13:12:14;;;;;;;17.08;5.28;;;;;;;4.12;100.00;100384.06;5051265;28;20485;-68
2022/12/02 13:14:39;;;;;;;15.32;6.13;;;;;;;4.19;100.00;100381.75;5051726;28;20041;-69
2022/12/02 13:17:05;;;;;;;16.00;4.88;;;;;;;4.20;100.00;100375.50;5051711;28;20052;-69
2022/12/02 13:19:30;;;;;;;18.50;5.90;;;;;;;4.16;100.00;100380.19;5051736;28;20032;-69
2022/12/02 13:21:56;;;;;;;12.23;4.97;;;;;;;4.07;100.00;100373.88;5051368;28;20383;-69
2022/12/02 13:24:21;;;;;;;16.52;5.72;;;;;;;4.15;100.00;100380.31;5050280;28;20131;-68
2022/12/02 13:26:46;;;;;;;13.30;5.47;;;;;;;4.15;100.00;100375.88;5051617;28;20045;-68
2022/12/02 13:29:12;;;;;;;14.68;4.65;;;;;;;4.20;100.00;100375.50;5051743;28;20127;-68
2022/12/02 13:31:37;;;;;;;9.60;5.50;;;;;;;4.18;100.00;100374.81;5051361;28;20040;-68
2022/12/02 13:34:03;;;;;;;14.40;5.75;;;;;;;4.27;100.00;100379.28;5051757;28;20114;-67
2022/12/02 13:36:28;;;;;;;7.28;4.15;;;;;;;4.25;100.00;100373.31;5051572;28;20037;-68
2022/12/02 13:38:53;;;;;;;11.25;4.57;;;;;;;4.30;100.00;100371.09;5051629;28;20494;-68
2022/12/02 13:41:19;;;;;;;12.50;4.72;;;;;;;4.28;100.00;100373.03;5051354;28;20025;-68
2022/12/02 13:43:45;;;;;;;8.82;4.32;;;;;;;4.31;100.00;100378.91;5053093;28;20485;-68
2022/12/02 13:46:10;;;;;;;6.82;3.67;;;;;;;4.20;100.00;100381.59;5055912;28;20029;-69
2022/12/02 13:48:36;;;;;;;7.03;3.80;;;;;;;4.27;100.00;100379.28;5055710;28;20029;-69
2022/12/02 13:51:01;;;;;;;9.68;4.78;;;;;;;4.27;100.00;100374.00;5055254;28;20120;-68
2022/12/02 13:53:28;;;;;;;6.07;3.63;;;;;;;4.24;100.00;100382.19;5055389;28;20037;-69
2022/12/02 13:55:53;;;;;;;5.35;3.13;;;;;;;4.28;100.00;100378.31;5055381;28;20032;-69
2022/12/02 13:58:18;;;;;;;8.55;4.15;;;;;;;4.31;100.00;100383.34;5055306;28;20037;-68
2022/12/02 14:00:44;;;;;;;5.22;2.42;;;;;;;4.27;100.00;100377.47;5055016;28;20040;-68
2022/12/02 14:03:10;;;;;;;3.63;2.85;;;;;;;4.15;100.00;100378.50;5055321;28;20032;-69
2022/12/02 14:05:35;;;;;;;6.32;3.40;;;;;;;4.20;100.00;100381.59;5055220;28;20048;-68
2022/12/02 14:08:01;;;;;;;5.22;2.47;;;;;;;4.13;100.00;100375.19;5055148;28;20037;-68
2022/12/02 14:10:26;;;;;;;4.82;2.35;;;;;;;4.06;100.00;100385.41;5054730;28;20045;-68
2022/12/02 14:12:52;;;;;;;6.03;2.97;;;;;;;4.12;100.00;100385.84;5055108;28;20128;-69
2022/12/02 14:15:17;;;;;;;5.25;2.88;;;;;;;4.08;100.00;100387.91;5055023;28;20048;-69
2022/12/02 14:17:43;;;;;;;5.30;2.33;;;;;;;4.09;100.00;100384.28;5054916;28;20036;-68
2022/12/02 14:20:09;;;;;;;9.68;3.42;;;;;;;4.14;100.00;100381.28;5054929;28;20040;-68
2022/12/02 14:22:35;;;;;;;6.13;3.33;;;;;;;4.10;100.00;100383.31;5055017;28;20486;-68
2022/12/02 14:25:02;;;;;;;4.53;2.95;;;;;;;4.01;100.00;100382.31;5054875;28;20104;-69
2022/12/02 14:27:27;;;;;;;6.13;2.90;;;;;;;4.01;100.00;100387.56;5054639;28;20033;-68
2022/12/02 14:29:52;;;;;;;8.00;3.40;;;;;;;4.03;100.00;100377.72;5054653;28;20041;-68
2022/12/02 14:32:18;;;;;;;5.57;2.85;;;;;;;4.07;100.00;100396.78;5054376;28;20037;-68
2022/12/02 14:34:43;;;;;;;6.60;3.08;;;;;;;4.03;100.00;100377.72;5053430;28;20049;-68
2022/12/02 14:37:08;;;;;;;6.55;2.75;;;;;;;4.06;100.00;100388.03;5054596;28;20033;-68
2022/12/02 14:39:34;;;;;;;7.07;3.53;;;;;;;4.07;100.00;100376.53;5054422;28;20456;-68
2022/12/02 14:41:59;;;;;;;4.63;3.10;;;;;;;4.04;100.00;100382.06;5054099;28;20116;-68
2022/12/02 14:44:24;;;;;;;6.57;2.95;;;;;;;4.07;100.00;100384.44;5054392;28;20571;-68
2022/12/02 14:46:50;;;;;;;4.93;2.60;;;;;;;4.09;100.00;100385.13;5054338;28;20047;-68
2022/12/02 14:49:15;;;;;;;5.95;2.80;;;;;;;4.05;100.00;100369.72;5054323;28;20082;-68
2022/12/02 14:51:41;;;;;;;7.57;2.53;;;;;;;4.03;100.00;100372.47;5054203;28;20395;-67
2022/12/02 14:54:06;;;;;;;3.50;2.65;;;;;;;4.02;100.00;100370.78;5053890;28;20044;-68
2022/12/02 14:56:32;;;;;;;4.85;3.20;;;;;;;3.99;100.00;100386.03;5054000;28;20078;-68
2022/12/02 14:58:57;;;;;;;8.30;3.08;;;;;;;3.91;100.00;100384.06;5054075;28;20094;-68
2022/12/02 15:01:22;;;;;;;4.18;2.28;;;;;;;3.97;100.00;100387.94;5053748;28;20040;-68
2022/12/02 15:03:48;;;;;;;6.35;2.75;;;;;;;3.95;100.00;100385.44;5054146;28;20049;-69
2022/12/02 15:06:13;;;;;;;4.88;2.80;;;;;;;3.92;100.00;100392.78;5054116;28;20037;-68
2022/12/02 15:08:39;;;;;;;4.63;2.80;;;;;;;3.94;100.00;100385.59;5052773;28;20512;-68
2022/12/02 15:11:04;;;;;;;4.70;3.05;;;;;;;3.94;100.00;100386.41;5053484;28;20076;-68
2022/12/02 15:13:30;;;;;;;3.00;2.65;;;;;;;3.86;100.00;100386.22;5054096;28;20055;-68
2022/12/02 15:15:55;;;;;;;6.18;3.47;;;;;;;3.74;100.00;100387.22;5053719;28;20122;-68
2022/12/02 15:18:20;;;;;;;5.25;3.17;;;;;;;3.69;100.00;100389.41;5053794;28;20063;-68
2022/12/02 15:20:46;;;;;;;4.57;3.28;;;;;;;3.79;100.00;100387.69;5053305;28;20044;-67
2022/12/02 15:23:11;;;;;;;4.72;3.15;;;;;;;3.77;100.00;100384.31;5053727;28;20032;-67
2022/12/02 15:25:36;;;;;;;5.68;3.67;;;;;;;3.72;100.00;100387.38;5053527;28;20048;-68
2022/12/02 15:28:02;;;;;;;6.13;3.53;;;;;;;3.70;100.00;100386.63;5053722;28;20124;-67
2022/12/02 15:30:28;;;;;;;6.22;3.45;;;;;;;3.75;100.00;100391.53;5053260;28;20053;-68
2022/12/02 15:32:53;;;;;;;5.75;3.05;;;;;;;3.74;100.00;100392.50;5053564;28;20041;-67
2022/12/02 15:35:19;;;;;;;5.10;3.42;;;;;;;3.70;100.00;100391.06;5053433;28;20045;-67
2022/12/02 15:37:44;;;;;;;5.38;3.45;;;;;;;3.62;100.00;100390.88;5053386;28;20044;-66
2022/12/02 15:40:11;;;;;;;5.25;3.42;;;;;;;3.55;100.00;100390.53;5053340;28;20127;-66
2022/12/02 15:42:36;;;;;;;7.65;3.17;;;;;;;3.59;100.00;100394.59;5053276;28;20025;-66
2022/12/02 15:45:02;;;;;;;6.93;3.55;;;;;;;3.54;100.00;100394.97;5053312;28;20033;-66
2022/12/02 15:47:27;;;;;;;6.32;2.90;;;;;;;3.56;100.00;100397.47;5053218;28;20551;-66
2022/12/02 15:49:53;;;;;;;6.50;3.10;;;;;;;3.47;100.00;100396.41;5053114;28;20409;-66
2022/12/02 15:52:18;;;;;;;3.70;2.58;;;;;;;3.49;100.00;100397.13;5052921;28;20048;-67
2022/12/02 15:54:43;;;;;;;5.22;3.05;;;;;;;3.47;100.00;100400.84;5053021;28;20154;-66
2022/12/02 15:57:09;;;;;;;5.28;3.20;;;;;;;3.50;100.00;100397.97;5053004;28;20051;-66
2022/12/02 15:59:34;;;;;;;5.07;3.00;;;;;;;3.55;100.00;100398.44;5052958;28;20037;-67
2022/12/02 16:02:00;;;;;;;7.57;3.45;;;;;;;3.45;100.00;100397.47;5051492;28;20098;-66
2022/12/02 16:04:25;;;;;;;4.55;2.67;;;;;;;3.43;100.00;100402.88;5052777;28;20536;-66
2022/12/02 16:06:52;;;;;;;4.45;3.33;;;;;;;3.48;100.00;100403.34;5051927;28;20111;-66
2022/12/02 16:09:17;;;;;;;6.05;3.30;;;;;;;3.49;100.00;100401.56;5051558;28;20045;-66
2022/12/02 16:11:43;;;;;;;4.63;2.60;;;;;;;3.39;100.00;100406.75;5052342;28;20040;-66
2022/12/02 16:14:08;;;;;;;6.60;3.55;;;;;;;3.45;100.00;100408.03;5052791;28;20044;-66
2022/12/02 16:16:34;;;;;;;4.95;3.20;;;;;;;3.34;100.00;100406.28;5052397;28;20079;-66
2022/12/02 16:18:59;;;;;;;4.60;2.67;;;;;;;3.33;100.00;100407.22;5052588;28;20037;-66
2022/12/02 16:21:24;;;;;;;5.38;2.97;;;;;;;3.30;100.00;100412.72;5052019;28;20037;-66
2022/12/02 16:23:50;;;;;;;7.43;4.15;;;;;;;3.30;100.00;100418.00;5052575;28;20048;-66
2022/12/02 16:26:15;;;;;;;8.13;3.85;;;;;;;3.36;100.00;100420.13;5052348;28;20052;-66
2022/12/02 16:28:42;;;;;;;8.13;3.10;;;;;;;3.38;100.00;100420.00;5052335;28;20070;-66
2022/12/02 16:31:08;;;;;;;5.22;3.25;;;;;;;3.37;100.00;100424.44;5052023;28;20441;-66
2022/12/02 16:33:33;;;;;;;6.05;3.22;;;;;;;3.22;100.00;100423.03;5052297;28;20036;-66
2022/12/02 16:35:58;;;;;;;11.52;3.78;;;;;;;3.23;100.00;100419.44;5052189;28;20551;-67
2022/12/02 16:38:24;;;;;;;5.20;3.65;;;;;;;3.27;100.00;100423.53;5057615;28;20655;-66
2022/12/02 16:40:49;;;;;;;5.80;3.15;;;;;;;3.25;100.00;100420.97;5091411;28;20039;-68
2022/12/02 16:43:15;;;;;;;7.65;3.70;;;;;;;3.30;100.00;100423.25;5092341;28;20051;-67
2022/12/02 16:45:40;;;;;;;7.72;3.72;;;;;;;3.23;100.00;100425.53;5092221;28;20044;-67